Terminal Aerodrome Forecast
Issued by NWS

Home | Current Version | Previous Version | Text Only | Print | Product List | Glossary On
Versions: 1 2 3 4 5 6 7 8 9 10 11 12 13 14 15 16 17
000
FTUS41 KCAR 220800 AAA
TAFHUL
TAF AMD
KHUL 220851Z 2209/2306 VRB03KT 1/4SM FG OVC002
     FM221100 23009KT P6SM -SHRA BKN008
     FM221700 25013KT P6SM BKN025
     FM221800 26014KT P6SM BKN050
     FM222300 27009KT P6SM SCT090=

USA.gov is the U.S. government's official web portal to all federal, state and local government web resources and services.